Time;durP1;ratioP1;P1;durP2;ratioP2;P2;SDS_P1;SDS_P2;PMS_P1;PMS_P2;Temp;Humidity;BMP_temperature;BMP_pressure;BME280_temperature;BME280_humidity;BME280_pressure;Samples;Min_cycle;Max_cycle;Signal;HPM_P1;HPM_P2
2021/09/29 00:01:43;;;;;;;;;1.00;1.00;;;;;;;;5036698;28;8799;-80
2021/09/29 00:04:12;;;;;;;;;2.00;0.25;;;;;;;;5037293;28;9000;-79
2021/09/29 00:06:39;;;;;;;;;3.00;1.00;;;;;;;;5046359;28;8904;-77
2021/09/29 00:09:07;;;;;;;;;1.00;1.00;;;;;;;;5040923;28;8855;-76
2021/09/29 00:11:34;;;;;;;;;1.00;1.00;;;;;;;;5037815;28;8993;-75
2021/09/29 00:14:01;;;;;;;;;1.00;1.00;;;;;;;;5045308;28;8854;-74
2021/09/29 00:16:29;;;;;;;;;1.00;1.00;;;;;;;;5041414;28;8936;-76
2021/09/29 00:18:56;;;;;;;;;1.00;1.00;;;;;;;;5043745;28;8854;-75
2021/09/29 00:21:25;;;;;;;;;1.75;1.00;;;;;;;;5040736;28;8905;-81
2021/09/29 00:23:52;;;;;;;;;2.00;2.00;;;;;;;;5036163;28;8903;-74
2021/09/29 00:26:19;;;;;;;;;1.00;1.00;;;;;;;;5041623;28;8878;-74
2021/09/29 00:28:46;;;;;;;;;2.00;1.00;;;;;;;;5037742;28;8865;-77
2021/09/29 00:31:26;;;;;;;;;2.50;1.00;;;;;;;;5034107;28;8819;-75
2021/09/29 00:33:58;;;;;;;;;0.25;0.25;;;;;;;;5040521;28;9697;-75
2021/09/29 00:36:27;;;;;;;;;0.75;0.75;;;;;;;;5040551;28;9640;-77
2021/09/29 00:38:55;;;;;;;;;2.00;1.00;;;;;;;;5041139;28;9648;-75
2021/09/29 00:41:23;;;;;;;;;1.75;1.00;;;;;;;;5038242;28;8908;-79
2021/09/29 00:43:50;;;;;;;;;0.75;0.75;;;;;;;;5042524;28;8874;-75
2021/09/29 00:46:17;;;;;;;;;2.00;0.50;;;;;;;;5044598;28;8870;-75
2021/09/29 00:48:45;;;;;;;;;2.00;1.00;;;;;;;;5043738;28;9004;-77
2021/09/29 00:51:12;;;;;;;;;2.00;0.50;;;;;;;;5026180;28;8988;-75
2021/09/29 00:53:41;;;;;;;;;2.00;0.75;;;;;;;;5036131;28;8850;-75
2021/09/29 00:56:08;;;;;;;;;0.75;0.75;;;;;;;;5038097;28;8893;-75
2021/09/29 00:58:36;;;;;;;;;1.00;1.00;;;;;;;;5033260;28;9652;-75
2021/09/29 01:01:03;;;;;;;;;2.75;1.50;;;;;;;;5036663;28;8825;-75
2021/09/29 01:03:31;;;;;;;;;5.00;1.00;;;;;;;;5018381;28;9000;-76
2021/09/29 01:06:01;;;;;;;;;0.00;0.00;;;;;;;;5034703;28;8852;-74
2021/09/29 01:08:34;;;;;;;;;1.00;1.00;;;;;;;;5041059;28;8890;-74
2021/09/29 01:11:07;;;;;;;;;0.50;0.50;;;;;;;;5039835;28;8943;-73
2021/09/29 01:13:41;;;;;;;;;2.25;0.75;;;;;;;;5043539;28;9020;-75
2021/09/29 01:16:11;;;;;;;;;1.50;0.25;;;;;;;;5023145;28;8893;-75
2021/09/29 01:18:44;;;;;;;;;0.75;0.75;;;;;;;;5043448;28;8862;-75
2021/09/29 01:21:13;;;;;;;;;0.75;0.75;;;;;;;;5040700;28;8883;-74
2021/09/29 01:23:55;;;;;;;;;1.00;1.00;;;;;;;;5042693;28;8846;-74
2021/09/29 01:26:28;;;;;;;;;0.00;0.00;;;;;;;;5031620;28;8885;-74
2021/09/29 01:28:58;;;;;;;;;1.00;1.00;;;;;;;;5040848;28;8878;-74
2021/09/29 01:31:26;;;;;;;;;1.75;0.00;;;;;;;;5041354;28;8898;-76
2021/09/29 01:33:54;;;;;;;;;0.00;0.00;;;;;;;;5017057;28;9025;-74
2021/09/29 01:36:23;;;;;;;;;1.25;1.25;;;;;;;;5032560;28;8882;-74
2021/09/29 01:38:54;;;;;;;;;0.00;0.00;;;;;;;;5038225;28;9702;-75
2021/09/29 01:41:24;;;;;;;;;0.50;0.00;;;;;;;;5039024;28;8934;-74
2021/09/29 01:43:52;;;;;;;;;0.75;0.00;;;;;;;;5041300;28;8859;-74
2021/09/29 01:46:20;;;;;;;;;0.00;0.00;;;;;;;;5030779;28;8860;-74
2021/09/29 01:48:55;;;;;;;;;2.75;1.50;;;;;;;;5018477;28;8944;-75
2021/09/29 01:51:23;;;;;;;;;1.00;1.00;;;;;;;;5032485;28;8904;-75
2021/09/29 01:53:52;;;;;;;;;2.00;0.50;;;;;;;;5039955;28;8859;-75
2021/09/29 01:56:19;;;;;;;;;0.00;0.00;;;;;;;;5040956;28;8874;-74
2021/09/29 01:58:48;;;;;;;;;0.50;0.50;;;;;;;;5043230;28;9655;-73
2021/09/29 02:01:15;;;;;;;;;0.75;0.75;;;;;;;;5040202;28;8821;-74
2021/09/29 02:03:46;;;;;;;;;0.50;0.00;;;;;;;;5032167;28;8865;-75
2021/09/29 02:06:13;;;;;;;;;0.25;0.00;;;;;;;;5011198;28;8865;-75
2021/09/29 02:08:41;;;;;;;;;2.00;1.00;;;;;;;;5039499;28;8968;-75
2021/09/29 02:11:08;;;;;;;;;0.00;0.00;;;;;;;;5030490;28;8926;-74
2021/09/29 02:13:36;;;;;;;;;1.00;1.00;;;;;;;;5041774;28;8928;-74
2021/09/29 02:16:05;;;;;;;;;0.25;0.25;;;;;;;;5043396;28;8927;-73
2021/09/29 02:18:32;;;;;;;;;0.75;0.75;;;;;;;;5035640;28;8979;-74
2021/09/29 02:20:59;;;;;;;;;1.00;1.00;;;;;;;;5037166;28;8918;-74
2021/09/29 02:23:27;;;;;;;;;0.00;0.00;;;;;;;;5041235;28;9008;-74
2021/09/29 02:25:54;;;;;;;;;1.00;1.00;;;;;;;;5036339;28;8847;-75
2021/09/29 02:28:21;;;;;;;;;0.00;0.00;;;;;;;;5036676;28;8858;-76
2021/09/29 02:30:49;;;;;;;;;0.00;0.00;;;;;;;;5016872;28;9433;-74
2021/09/29 02:33:18;;;;;;;;;2.00;0.25;;;;;;;;5039518;28;9660;-76
2021/09/29 02:35:45;;;;;;;;;0.00;0.00;;;;;;;;5037085;28;8926;-73
2021/09/29 02:38:13;;;;;;;;;0.25;0.25;;;;;;;;5037578;28;8862;-75
2021/09/29 02:40:40;;;;;;;;;0.00;0.00;;;;;;;;5042086;28;8897;-74
2021/09/29 02:43:07;;;;;;;;;0.00;0.00;;;;;;;;5025814;28;8898;-73
2021/09/29 02:45:35;;;;;;;;;0.25;0.25;;;;;;;;5040003;28;8895;-74
2021/09/29 02:48:02;;;;;;;;;0.00;0.00;;;;;;;;5037270;28;8870;-75
2021/09/29 02:50:31;;;;;;;;;2.00;1.00;;;;;;;;5041086;28;8880;-74
2021/09/29 02:53:00;;;;;;;;;0.00;0.00;;;;;;;;5035641;28;8890;-73
2021/09/29 02:55:27;;;;;;;;;0.25;0.25;;;;;;;;5038442;28;8875;-74
2021/09/29 02:57:54;;;;;;;;;0.75;0.00;;;;;;;;5034330;28;8870;-76
2021/09/29 03:00:21;;;;;;;;;0.00;0.00;;;;;;;;5035438;28;8896;-76
2021/09/29 03:02:49;;;;;;;;;2.50;0.00;;;;;;;;5035028;28;8864;-75
2021/09/29 03:05:16;;;;;;;;;0.50;0.25;;;;;;;;5046637;28;9731;-74
2021/09/29 03:07:45;;;;;;;;;0.00;0.00;;;;;;;;5036213;28;8849;-78
2021/09/29 03:10:12;;;;;;;;;0.00;0.00;;;;;;;;5035866;28;8870;-76
2021/09/29 03:12:39;;;;;;;;;0.00;0.00;;;;;;;;5039335;28;8859;-77
2021/09/29 03:15:08;;;;;;;;;0.00;0.00;;;;;;;;5044930;28;8910;-76
2021/09/29 03:17:35;;;;;;;;;0.00;0.00;;;;;;;;5046388;28;8882;-75
2021/09/29 03:20:02;;;;;;;;;0.00;0.00;;;;;;;;5036357;28;8904;-78
2021/09/29 03:22:32;;;;;;;;;1.00;1.00;;;;;;;;5044261;28;8874;-74
2021/09/29 03:25:00;;;;;;;;;0.00;0.00;;;;;;;;5019969;28;8945;-74
2021/09/29 03:27:28;;;;;;;;;1.00;1.00;;;;;;;;5036772;28;8867;-74
2021/09/29 03:29:55;;;;;;;;;0.00;0.00;;;;;;;;5046561;28;9008;-74
2021/09/29 03:32:22;;;;;;;;;0.00;0.00;;;;;;;;5039687;28;8883;-73
2021/09/29 03:34:49;;;;;;;;;0.00;0.00;;;;;;;;5036776;28;8902;-74
2021/09/29 03:37:17;;;;;;;;;0.00;0.00;;;;;;;;5043863;28;8914;-74
2021/09/29 03:39:44;;;;;;;;;1.00;1.00;;;;;;;;5040139;28;8877;-76
2021/09/29 03:42:13;;;;;;;;;0.00;0.00;;;;;;;;5033937;28;8984;-74
2021/09/29 03:44:40;;;;;;;;;2.00;0.00;;;;;;;;5031271;28;8860;-73
2021/09/29 03:47:08;;;;;;;;;0.00;0.00;;;;;;;;5046210;28;8855;-74
2021/09/29 03:49:35;;;;;;;;;1.00;1.00;;;;;;;;5041319;28;9005;-73
2021/09/29 03:52:03;;;;;;;;;0.50;0.25;;;;;;;;5026899;28;8869;-74
2021/09/29 03:54:30;;;;;;;;;2.00;0.00;;;;;;;;5038322;28;8864;-77
2021/09/29 03:56:59;;;;;;;;;0.25;0.25;;;;;;;;5033850;28;8868;-74
2021/09/29 03:59:29;;;;;;;;;0.00;0.00;;;;;;;;5039992;28;8993;-74
2021/09/29 04:01:56;;;;;;;;;1.00;1.00;;;;;;;;5023774;28;8833;-77
2021/09/29 04:04:23;;;;;;;;;0.25;0.25;;;;;;;;5033883;28;9637;-75
2021/09/29 04:06:51;;;;;;;;;0.00;0.00;;;;;;;;5034318;28;8914;-74
2021/09/29 04:09:18;;;;;;;;;0.00;0.00;;;;;;;;5046453;28;8847;-80
2021/09/29 04:11:46;;;;;;;;;0.25;0.25;;;;;;;;5040904;28;8928;-74
2021/09/29 04:14:15;;;;;;;;;0.75;0.75;;;;;;;;5045425;28;8882;-75
2021/09/29 04:16:44;;;;;;;;;1.00;1.00;;;;;;;;5025138;28;8882;-75
2021/09/29 04:19:12;;;;;;;;;1.00;1.00;;;;;;;;5042731;28;8886;-76
2021/09/29 04:21:39;;;;;;;;;1.00;1.00;;;;;;;;5041690;28;8866;-75
2021/09/29 04:24:06;;;;;;;;;1.00;1.00;;;;;;;;5044945;28;8893;-77
2021/09/29 04:26:34;;;;;;;;;0.00;0.00;;;;;;;;5042745;28;8884;-76
2021/09/29 04:29:01;;;;;;;;;1.25;0.00;;;;;;;;5043817;28;8866;-75
2021/09/29 04:31:28;;;;;;;;;1.75;1.00;;;;;;;;5036092;28;8848;-77
2021/09/29 04:33:57;;;;;;;;;1.00;1.00;;;;;;;;5039114;28;8863;-75
2021/09/29 04:36:25;;;;;;;;;3.00;1.00;;;;;;;;5042546;28;8876;-75
2021/09/29 04:38:52;;;;;;;;;1.00;1.00;;;;;;;;5044330;28;8858;-78
2021/09/29 04:41:20;;;;;;;;;0.25;0.25;;;;;;;;5031050;28;8870;-76
2021/09/29 04:43:47;;;;;;;;;1.00;1.00;;;;;;;;5034755;28;9001;-76
2021/09/29 04:46:14;;;;;;;;;0.00;0.00;;;;;;;;5043284;28;8900;-75
2021/09/29 04:48:42;;;;;;;;;2.00;1.00;;;;;;;;5034588;28;8870;-75
2021/09/29 04:51:11;;;;;;;;;1.00;1.00;;;;;;;;5007292;28;8864;-76
2021/09/29 04:53:38;;;;;;;;;0.75;0.75;;;;;;;;5043224;28;8897;-77
2021/09/29 04:56:06;;;;;;;;;0.00;0.00;;;;;;;;5037516;28;8885;-77
2021/09/29 04:58:33;;;;;;;;;0.25;0.25;;;;;;;;5012268;28;8876;-74
2021/09/29 05:01:01;;;;;;;;;1.75;1.75;;;;;;;;5040053;28;8909;-74
2021/09/29 05:03:29;;;;;;;;;2.00;0.00;;;;;;;;5040200;28;9866;-75
2021/09/29 05:05:56;;;;;;;;;1.00;1.00;;;;;;;;5034840;28;8862;-74
2021/09/29 05:08:27;;;;;;;;;0.00;0.00;;;;;;;;5034493;28;8902;-72
2021/09/29 05:10:59;;;;;;;;;0.50;0.00;;;;;;;;5037703;28;8872;-75
2021/09/29 05:13:30;;;;;;;;;0.00;0.00;;;;;;;;5037098;28;8874;-74
2021/09/29 05:15:57;;;;;;;;;0.75;0.75;;;;;;;;5035844;28;8858;-74
2021/09/29 05:18:24;;;;;;;;;1.75;1.75;;;;;;;;5032493;28;8940;-77
2021/09/29 05:20:52;;;;;;;;;2.00;1.00;;;;;;;;5033450;28;8985;-76
2021/09/29 05:23:19;;;;;;;;;0.00;0.00;;;;;;;;5040896;28;8853;-79
2021/09/29 05:25:48;;;;;;;;;1.00;1.00;;;;;;;;5040592;28;8862;-79
2021/09/29 05:28:19;;;;;;;;;0.25;0.25;;;;;;;;5034817;28;8877;-76
2021/09/29 05:30:46;;;;;;;;;0.25;0.25;;;;;;;;5039397;28;8833;-75
2021/09/29 05:33:14;;;;;;;;;1.00;0.00;;;;;;;;5023280;28;8881;-75
2021/09/29 05:35:41;;;;;;;;;0.67;0.00;;;;;;;;5023416;28;8857;-74
2021/09/29 05:38:08;;;;;;;;;0.00;0.00;;;;;;;;5036560;28;8876;-74
2021/09/29 05:40:36;;;;;;;;;0.00;0.00;;;;;;;;5027573;28;8843;-75
2021/09/29 05:43:05;;;;;;;;;0.00;0.00;;;;;;;;5041440;28;8896;-75
2021/09/29 05:45:32;;;;;;;;;0.00;0.00;;;;;;;;5043389;28;8870;-74
2021/09/29 05:47:59;;;;;;;;;0.00;0.00;;;;;;;;5043238;28;8883;-76
2021/09/29 05:50:27;;;;;;;;;0.00;0.00;;;;;;;;5043804;28;8886;-76
2021/09/29 05:52:54;;;;;;;;;0.00;0.00;;;;;;;;5025704;28;8979;-75
2021/09/29 05:55:21;;;;;;;;;0.00;0.00;;;;;;;;5043624;28;8890;-75
2021/09/29 05:57:49;;;;;;;;;0.00;0.00;;;;;;;;5026031;28;8878;-77
2021/09/29 06:00:19;;;;;;;;;0.00;0.00;;;;;;;;5021889;28;8866;-83
2021/09/29 06:02:46;;;;;;;;;0.00;0.00;;;;;;;;5041174;28;8854;-80
2021/09/29 06:05:13;;;;;;;;;0.00;0.00;;;;;;;;5039571;28;9699;-82
2021/09/29 06:07:41;;;;;;;;;0.00;0.00;;;;;;;;5045584;28;8912;-81
2021/09/29 06:10:09;;;;;;;;;2.25;0.00;;;;;;;;5043830;28;8939;-80
2021/09/29 06:12:36;;;;;;;;;0.00;0.00;;;;;;;;5042791;28;8882;-81
2021/09/29 06:15:04;;;;;;;;;0.00;0.00;;;;;;;;5043843;28;8881;-81
2021/09/29 06:17:39;;;;;;;;;0.00;0.00;;;;;;;;5039594;28;8874;-81
2021/09/29 06:20:08;;;;;;;;;0.00;0.00;;;;;;;;5041792;28;8867;-80
2021/09/29 06:22:36;;;;;;;;;0.00;0.00;;;;;;;;5041806;28;8866;-81
2021/09/29 06:25:03;;;;;;;;;0.75;0.00;;;;;;;;5043689;28;8947;-80
2021/09/29 06:27:30;;;;;;;;;0.00;0.00;;;;;;;;5046080;28;8940;-80
2021/09/29 06:29:58;;;;;;;;;0.00;0.00;;;;;;;;5047602;28;8885;-79
2021/09/29 06:32:25;;;;;;;;;0.00;0.00;;;;;;;;5046130;28;8811;-79
2021/09/29 06:34:54;;;;;;;;;0.00;0.00;;;;;;;;5041707;28;8913;-79
2021/09/29 06:37:21;;;;;;;;;0.00;0.00;;;;;;;;5029144;28;8882;-79
2021/09/29 06:39:49;;;;;;;;;0.00;0.00;;;;;;;;5045952;28;8862;-80
2021/09/29 06:42:16;;;;;;;;;0.00;0.00;;;;;;;;5029440;28;8904;-80
2021/09/29 06:44:44;;;;;;;;;1.00;0.00;;;;;;;;5046497;28;8902;-77
2021/09/29 06:47:11;;;;;;;;;0.00;0.00;;;;;;;;5044545;28;8886;-73
2021/09/29 06:49:38;;;;;;;;;1.00;0.00;;;;;;;;5040315;28;8890;-73
2021/09/29 06:52:08;;;;;;;;;0.00;0.00;;;;;;;;5039070;28;8901;-75
2021/09/29 06:54:35;;;;;;;;;0.00;0.00;;;;;;;;5039565;28;8877;-74
2021/09/29 06:57:02;;;;;;;;;0.25;0.00;;;;;;;;5044872;28;8888;-74
2021/09/29 06:59:29;;;;;;;;;0.00;0.00;;;;;;;;5045452;28;8912;-75
2021/09/29 07:01:57;;;;;;;;;0.00;0.00;;;;;;;;5042949;28;8835;-74
2021/09/29 07:04:24;;;;;;;;;0.00;0.00;;;;;;;;5043248;28;8879;-75
2021/09/29 07:06:51;;;;;;;;;0.00;0.00;;;;;;;;5043958;28;8865;-74
2021/09/29 07:09:20;;;;;;;;;0.00;0.00;;;;;;;;5045241;28;8874;-74
2021/09/29 07:11:47;;;;;;;;;0.00;0.00;;;;;;;;5033748;28;8851;-74
2021/09/29 07:14:15;;;;;;;;;0.00;0.00;;;;;;;;5043751;28;8981;-74
2021/09/29 07:16:43;;;;;;;;;0.00;0.00;;;;;;;;5041251;28;8858;-74
2021/09/29 07:19:10;;;;;;;;;0.00;0.00;;;;;;;;5044262;28;8874;-74
2021/09/29 07:21:38;;;;;;;;;0.00;0.00;;;;;;;;5045084;28;8878;-74
2021/09/29 07:24:06;;;;;;;;;0.00;0.00;;;;;;;;5041996;28;8843;-73
2021/09/29 07:26:35;;;;;;;;;0.00;0.00;;;;;;;;5044838;28;8878;-74
2021/09/29 07:29:03;;;;;;;;;0.00;0.00;;;;;;;;5042494;28;8866;-74
2021/09/29 07:31:30;;;;;;;;;0.00;0.00;;;;;;;;5043832;28;8795;-74
2021/09/29 07:33:58;;;;;;;;;0.00;0.00;;;;;;;;5045238;28;8867;-74
2021/09/29 07:36:26;;;;;;;;;0.00;0.00;;;;;;;;5043685;28;8866;-74
2021/09/29 07:38:53;;;;;;;;;0.00;0.00;;;;;;;;5044432;28;9685;-74
2021/09/29 07:41:20;;;;;;;;;0.00;0.00;;;;;;;;5013150;28;8887;-74
2021/09/29 07:43:49;;;;;;;;;0.00;0.00;;;;;;;;5041857;28;8875;-74
2021/09/29 07:46:16;;;;;;;;;0.00;0.00;;;;;;;;5043094;28;8886;-75
2021/09/29 07:48:43;;;;;;;;;0.00;0.00;;;;;;;;5035928;28;8890;-75
2021/09/29 07:51:13;;;;;;;;;0.25;0.25;;;;;;;;5036902;28;8926;-74
2021/09/29 07:53:41;;;;;;;;;1.50;1.00;;;;;;;;5042952;28;8947;-74
2021/09/29 07:56:08;;;;;;;;;0.00;0.00;;;;;;;;5038486;28;8868;-74
2021/09/29 07:58:36;;;;;;;;;0.25;0.25;;;;;;;;5041215;28;8894;-74
2021/09/29 08:01:05;;;;;;;;;0.00;0.00;;;;;;;;5039863;28;8861;-74
2021/09/29 08:03:32;;;;;;;;;1.75;0.00;;;;;;;;5042581;28;8892;-72
2021/09/29 08:06:02;;;;;;;;;1.00;1.00;;;;;;;;5045074;28;8912;-72
2021/09/29 08:08:29;;;;;;;;;0.00;0.00;;;;;;;;5028539;28;9654;-71
2021/09/29 08:10:56;;;;;;;;;0.00;0.00;;;;;;;;5024179;28;8996;-72
2021/09/29 08:13:24;;;;;;;;;0.00;0.00;;;;;;;;5046017;28;8998;-72
2021/09/29 08:15:53;;;;;;;;;0.00;0.00;;;;;;;;5038687;28;8857;-74
2021/09/29 08:18:22;;;;;;;;;1.00;1.00;;;;;;;;5023265;28;8863;-74
2021/09/29 08:20:49;;;;;;;;;0.00;0.00;;;;;;;;5025595;28;9015;-71
2021/09/29 08:23:20;;;;;;;;;0.00;0.00;;;;;;;;5040262;28;8875;-72
2021/09/29 08:28:46;;;;;;;;;0.25;0.25;;;;;;;;5007531;28;8892;-72
2021/09/29 08:31:22;;;;;;;;;4.00;1.00;;;;;;;;5037082;28;8843;-73
2021/09/29 08:34:07;;;;;;;;;0.75;0.75;;;;;;;;5041416;28;8842;-73
2021/09/29 08:36:39;;;;;;;;;1.50;0.00;;;;;;;;5032786;28;8870;-75
2021/09/29 08:39:12;;;;;;;;;0.75;0.00;;;;;;;;5038745;28;8858;-76
2021/09/29 08:42:00;;;;;;;;;1.00;1.00;;;;;;;;5038130;28;8874;-76
2021/09/29 08:44:29;;;;;;;;;0.50;0.50;;;;;;;;5035174;28;9872;-76
2021/09/29 08:47:11;;;;;;;;;0.00;0.00;;;;;;;;5033025;28;8867;-75
2021/09/29 08:49:55;;;;;;;;;0.00;0.00;;;;;;;;5033040;28;8843;-76
2021/09/29 09:14:42;;;;;;;;;0.00;0.00;;;;;;;;5032935;28;8890;-76
2021/09/29 09:14:56;;;;;;;;;0.00;0.00;;;;;;;;5023723;28;8815;-76
2021/09/29 09:17:29;;;;;;;;;0.00;0.00;;;;;;;;5030190;28;8979;-76
2021/09/29 09:19:56;;;;;;;;;0.00;0.00;;;;;;;;5037776;28;8894;-76
2021/09/29 09:22:34;;;;;;;;;0.00;0.00;;;;;;;;5037347;28;8875;-76
2021/09/29 09:25:01;;;;;;;;;0.00;0.00;;;;;;;;5038026;28;8900;-73
2021/09/29 09:27:39;;;;;;;;;0.00;0.00;;;;;;;;5040383;28;9612;-74
2021/09/29 09:30:09;;;;;;;;;0.00;0.00;;;;;;;;5035741;28;8834;-73
2021/09/29 09:32:44;;;;;;;;;1.00;0.00;;;;;;;;5011405;28;8860;-74
2021/09/29 09:35:13;;;;;;;;;0.00;0.00;;;;;;;;5018604;28;8850;-73
2021/09/29 09:37:51;;;;;;;;;0.00;0.00;;;;;;;;5042321;28;8946;-73
2021/09/29 09:40:21;;;;;;;;;1.25;1.00;;;;;;;;5037271;28;8898;-74
2021/09/29 09:42:50;;;;;;;;;0.00;0.00;;;;;;;;5041580;28;8854;-73
2021/09/29 09:45:19;;;;;;;;;0.25;0.25;;;;;;;;5027471;28;8904;-72
2021/09/29 09:47:47;;;;;;;;;0.00;0.00;;;;;;;;5040787;28;8843;-73
2021/09/29 09:50:25;;;;;;;;;0.00;0.00;;;;;;;;5041939;28;8900;-73
2021/09/29 09:52:54;;;;;;;;;0.25;0.25;;;;;;;;5038921;28;8860;-74
2021/09/29 09:55:23;;;;;;;;;1.50;0.00;;;;;;;;5035038;28;8876;-73
2021/09/29 09:57:56;;;;;;;;;0.00;0.00;;;;;;;;5029594;28;8884;-74
2021/09/29 10:00:25;;;;;;;;;0.00;0.00;;;;;;;;5022962;28;8779;-74
2021/09/29 10:02:55;;;;;;;;;0.00;0.00;;;;;;;;5043874;28;8951;-74
2021/09/29 10:05:23;;;;;;;;;0.00;0.00;;;;;;;;5038705;28;8859;-73
2021/09/29 10:07:51;;;;;;;;;0.00;0.00;;;;;;;;5025153;28;8870;-74
2021/09/29 10:10:26;;;;;;;;;2.00;0.00;;;;;;;;5043429;28;9787;-73
2021/09/29 10:13:10;;;;;;;;;1.00;0.00;;;;;;;;5043120;28;8878;-74
2021/09/29 10:24:07;;;;;;;;;0.00;0.00;;;;;;;;5044121;28;8870;-72
2021/09/29 10:26:35;;;;;;;;;0.00;0.00;;;;;;;;5042751;28;8878;-75
2021/09/29 10:29:07;;;;;;;;;0.00;0.00;;;;;;;;5041742;28;8893;-74
2021/09/29 10:34:28;;;;;;;;;0.75;0.00;;;;;;;;5035310;28;8903;-73
2021/09/29 10:42:41;;;;;;;;;0.00;0.00;;;;;;;;5040525;28;8842;-74
2021/09/29 10:45:38;;;;;;;;;0.00;0.00;;;;;;;;5040732;28;8885;-74
2021/09/29 11:06:09;;;;;;;;;0.00;0.00;;;;;;;;5132316;27;13475;-71
2021/09/29 11:28:24;;;;;;;;;0.00;0.00;;;;;;;;5103337;28;8860;-74
2021/09/29 11:30:55;;;;;;;;;0.00;0.00;;;;;;;;5099731;27;9585;-74
2021/09/29 11:33:32;;;;;;;;;0.00;0.00;;;;;;;;5081354;28;8883;-74
2021/09/29 12:09:40;;;;;;;;;0.00;0.00;;;;;;;;5079599;28;8809;-74
2021/09/29 12:12:18;;;;;;;;;0.00;0.00;;;;;;;;5077000;28;8872;-73
2021/09/29 12:14:47;;;;;;;;;0.00;0.00;;;;;;;;5080224;28;9649;-73
2021/09/29 12:17:21;;;;;;;;;0.00;0.00;;;;;;;;5065284;28;8868;-73
2021/09/29 12:19:53;;;;;;;;;1.00;0.00;;;;;;;;5063030;28;9622;-72
2021/09/29 12:22:22;;;;;;;;;0.00;0.00;;;;;;;;5062750;28;8829;-74
2021/09/29 12:24:55;;;;;;;;;0.00;0.00;;;;;;;;5062055;28;9661;-72
2021/09/29 12:27:27;;;;;;;;;0.00;0.00;;;;;;;;5066135;28;8856;-73
2021/09/29 12:29:56;;;;;;;;;0.00;0.00;;;;;;;;5062839;28;8860;-73
2021/09/29 12:35:19;;;;;;;;;0.00;0.00;;;;;;;;5062010;28;8852;-74
2021/09/29 12:37:57;;;;;;;;;0.00;0.00;;;;;;;;5063901;28;8868;-73
2021/09/29 12:40:26;;;;;;;;;0.00;0.00;;;;;;;;5065331;28;8974;-73
2021/09/29 12:43:00;;;;;;;;;1.00;1.00;;;;;;;;5067194;28;8887;-73
2021/09/29 12:45:28;;;;;;;;;0.00;0.00;;;;;;;;5067541;28;8884;-72
2021/09/29 12:47:58;;;;;;;;;0.00;0.00;;;;;;;;5064479;28;8883;-73
2021/09/29 12:50:34;;;;;;;;;0.00;0.00;;;;;;;;5065042;28;8887;-73
2021/09/29 12:53:05;;;;;;;;;0.00;0.00;;;;;;;;5065455;28;8849;-74
2021/09/29 12:55:36;;;;;;;;;0.00;0.00;;;;;;;;5066547;28;8903;-73
2021/09/29 12:58:04;;;;;;;;;1.00;0.00;;;;;;;;5065583;28;8868;-73
2021/09/29 13:00:32;;;;;;;;;0.00;0.00;;;;;;;;5061900;28;8795;-74
2021/09/29 13:03:02;;;;;;;;;0.25;0.25;;;;;;;;5061765;28;8871;-74
2021/09/29 13:05:29;;;;;;;;;0.00;0.00;;;;;;;;5063234;28;8887;-73
2021/09/29 13:07:56;;;;;;;;;0.00;0.00;;;;;;;;5068212;28;8880;-73
2021/09/29 13:10:24;;;;;;;;;0.00;0.00;;;;;;;;5065954;28;8852;-74
2021/09/29 13:12:52;;;;;;;;;0.00;0.00;;;;;;;;5065727;28;8861;-74
2021/09/29 13:15:21;;;;;;;;;0.00;0.00;;;;;;;;5064865;28;8941;-74
2021/09/29 13:17:51;;;;;;;;;0.00;0.00;;;;;;;;5065591;28;9292;-74
2021/09/29 13:20:20;;;;;;;;;0.00;0.00;;;;;;;;5066643;28;9653;-73
2021/09/29 13:22:54;;;;;;;;;0.00;0.00;;;;;;;;5066734;28;8870;-75
2021/09/29 13:36:38;;;;;;;;;0.00;0.00;;;;;;;;5062979;28;8840;-74
2021/09/29 13:39:08;;;;;;;;;0.00;0.00;;;;;;;;5058570;28;8876;-74
2021/09/29 13:41:36;;;;;;;;;0.00;0.00;;;;;;;;5060096;28;8864;-75
2021/09/29 13:44:04;;;;;;;;;0.00;0.00;;;;;;;;5058567;28;9655;-74
2021/09/29 13:46:33;;;;;;;;;0.00;0.00;;;;;;;;5057503;28;8875;-74
2021/09/29 13:49:02;;;;;;;;;0.00;0.00;;;;;;;;5058237;28;8868;-76
2021/09/29 13:51:30;;;;;;;;;0.00;0.00;;;;;;;;5064822;28;8894;-74
2021/09/29 13:53:58;;;;;;;;;0.00;0.00;;;;;;;;5064465;28;8845;-76
2021/09/29 13:56:31;;;;;;;;;0.00;0.00;;;;;;;;5062039;28;8982;-74
2021/09/29 14:29:27;;;;;;;;;0.00;0.00;;;;;;;;5058175;28;9610;-72
2021/09/29 14:32:05;;;;;;;;;0.00;0.00;;;;;;;;5061157;28;8816;-73
2021/09/29 14:34:34;;;;;;;;;0.00;0.00;;;;;;;;5063757;28;8898;-73
2021/09/29 14:37:02;;;;;;;;;0.00;0.00;;;;;;;;5060280;28;8845;-71
2021/09/29 14:39:30;;;;;;;;;0.00;0.00;;;;;;;;5061756;28;8855;-74
2021/09/29 14:41:57;;;;;;;;;0.00;0.00;;;;;;;;5058604;28;8844;-74
2021/09/29 14:44:25;;;;;;;;;0.00;0.00;;;;;;;;5062268;28;8860;-73
2021/09/29 14:46:53;;;;;;;;;0.00;0.00;;;;;;;;5062382;28;8946;-73
2021/09/29 14:49:20;;;;;;;;;0.00;0.00;;;;;;;;5061275;28;8871;-72
2021/09/29 14:51:49;;;;;;;;;0.00;0.00;;;;;;;;5062682;28;8857;-71
2021/09/29 14:54:17;;;;;;;;;0.00;0.00;;;;;;;;5062451;28;8910;-71
2021/09/29 14:56:46;;;;;;;;;0.00;0.00;;;;;;;;5060195;28;8979;-73
2021/09/29 14:59:14;;;;;;;;;0.00;0.00;;;;;;;;5062370;28;8893;-73
2021/09/29 15:01:41;;;;;;;;;0.00;0.00;;;;;;;;5061422;28;8819;-72
2021/09/29 15:04:08;;;;;;;;;0.00;0.00;;;;;;;;5063559;28;8884;-75
2021/09/29 15:06:37;;;;;;;;;0.00;0.00;;;;;;;;5059840;28;8906;-74
2021/09/29 15:09:06;;;;;;;;;2.00;0.00;;;;;;;;5061613;28;8853;-74
2021/09/29 15:11:34;;;;;;;;;0.00;0.00;;;;;;;;5066294;28;8880;-74
2021/09/29 15:14:08;;;;;;;;;0.00;0.00;;;;;;;;5061531;28;8884;-75
2021/09/29 15:16:41;;;;;;;;;0.00;0.00;;;;;;;;5062055;28;8860;-74
2021/09/29 15:19:25;;;;;;;;;0.00;0.00;;;;;;;;5059585;28;8875;-75
2021/09/29 15:22:01;;;;;;;;;0.00;0.00;;;;;;;;5066428;28;8877;-74
2021/09/29 15:46:52;;;;;;;;;0.00;0.00;;;;;;;;5060334;28;8769;-73
2021/09/29 15:49:33;;;;;;;;;0.00;0.00;;;;;;;;5061525;28;8884;-72
2021/09/29 15:52:10;;;;;;;;;0.00;0.00;;;;;;;;5064934;28;8896;-75
2021/09/29 15:54:41;;;;;;;;;0.00;0.00;;;;;;;;5065433;28;9002;-76
2021/09/29 15:57:20;;;;;;;;;0.00;0.00;;;;;;;;5065219;28;8874;-74
2021/09/29 16:02:37;;;;;;;;;0.00;0.00;;;;;;;;5058962;28;8854;-73
2021/09/29 16:05:18;;;;;;;;;0.75;0.00;;;;;;;;5065285;28;8891;-73
2021/09/29 16:07:53;;;;;;;;;0.75;0.00;;;;;;;;5063350;28;8871;-72
2021/09/29 16:22:04;;;;;;;;;0.25;0.00;;;;;;;;5051168;28;8848;-73
2021/09/29 16:33:07;;;;;;;;;0.00;0.00;;;;;;;;5064347;28;8838;-75
2021/09/29 16:35:37;;;;;;;;;0.00;0.00;;;;;;;;5070064;28;8941;-72
2021/09/29 16:38:04;;;;;;;;;0.00;0.00;;;;;;;;5066835;28;9225;-74
2021/09/29 16:40:34;;;;;;;;;0.00;0.00;;;;;;;;5072505;28;9039;-72
2021/09/29 16:43:01;;;;;;;;;0.00;0.00;;;;;;;;5065117;28;8879;-73
2021/09/29 16:45:30;;;;;;;;;0.00;0.00;;;;;;;;5070960;28;8876;-73
2021/09/29 16:47:58;;;;;;;;;0.50;0.00;;;;;;;;5064546;28;8840;-73
2021/09/29 16:50:32;;;;;;;;;0.00;0.00;;;;;;;;5056328;28;8849;-72
2021/09/29 16:53:07;;;;;;;;;0.00;0.00;;;;;;;;5077502;28;8925;-73
2021/09/29 16:55:37;;;;;;;;;0.25;0.00;;;;;;;;5064712;28;8886;-74
2021/09/29 16:58:10;;;;;;;;;0.00;0.00;;;;;;;;5064653;28;8852;-74
2021/09/29 17:00:49;;;;;;;;;0.00;0.00;;;;;;;;5063431;28;8820;-73
2021/09/29 17:03:16;;;;;;;;;0.00;0.00;;;;;;;;5069065;28;8881;-72
2021/09/29 17:05:44;;;;;;;;;0.00;0.00;;;;;;;;5064443;28;8864;-73
2021/09/29 17:08:11;;;;;;;;;0.50;0.00;;;;;;;;5058432;28;8976;-74
2021/09/29 17:10:38;;;;;;;;;0.00;0.00;;;;;;;;5049295;28;9683;-74
2021/09/29 17:13:06;;;;;;;;;0.00;0.00;;;;;;;;5064363;28;9514;-73
2021/09/29 17:15:34;;;;;;;;;0.00;0.00;;;;;;;;5063153;28;8879;-73
2021/09/29 17:18:03;;;;;;;;;0.00;0.00;;;;;;;;5062024;28;8978;-73
2021/09/29 17:20:30;;;;;;;;;0.00;0.00;;;;;;;;5066535;28;8865;-72
2021/09/29 17:22:59;;;;;;;;;0.00;0.00;;;;;;;;5063598;28;8862;-73
2021/09/29 17:25:28;;;;;;;;;0.00;0.00;;;;;;;;5060966;28;8860;-74
2021/09/29 17:27:56;;;;;;;;;0.50;0.00;;;;;;;;5061996;28;8828;-73
2021/09/29 17:30:26;;;;;;;;;0.00;0.00;;;;;;;;5060056;28;8807;-73
2021/09/29 17:35:48;;;;;;;;;0.00;0.00;;;;;;;;5016240;28;8850;-75
2021/09/29 17:52:16;;;;;;;;;0.00;0.00;;;;;;;;5040795;28;8847;-74
2021/09/29 17:54:43;;;;;;;;;0.00;0.00;;;;;;;;5040738;28;8862;-75
2021/09/29 17:57:11;;;;;;;;;0.75;0.00;;;;;;;;5042953;28;8846;-80
2021/09/29 17:59:41;;;;;;;;;0.00;0.00;;;;;;;;5040022;28;9052;-75
2021/09/29 18:02:12;;;;;;;;;0.00;0.00;;;;;;;;5058938;28;8809;-73
2021/09/29 18:04:41;;;;;;;;;0.00;0.00;;;;;;;;5061357;28;8868;-74
2021/09/29 18:07:25;;;;;;;;;0.00;0.00;;;;;;;;5067968;28;8849;-77
2021/09/29 18:09:52;;;;;;;;;0.00;0.00;;;;;;;;5063015;28;8899;-80
2021/09/29 18:12:20;;;;;;;;;0.00;0.00;;;;;;;;5063341;28;9000;-78
2021/09/29 18:14:48;;;;;;;;;0.00;0.00;;;;;;;;5062158;28;8829;-79
2021/09/29 18:17:16;;;;;;;;;0.00;0.00;;;;;;;;5062646;28;8980;-77
2021/09/29 18:19:44;;;;;;;;;0.00;0.00;;;;;;;;5065418;28;8858;-76
2021/09/29 18:22:13;;;;;;;;;0.00;0.00;;;;;;;;5065730;28;8874;-76
2021/09/29 18:24:41;;;;;;;;;0.00;0.00;;;;;;;;5065687;28;8856;-76
2021/09/29 18:27:09;;;;;;;;;0.00;0.00;;;;;;;;5065498;28;8937;-79
2021/09/29 18:29:36;;;;;;;;;0.00;0.00;;;;;;;;5065756;28;8993;-78
2021/09/29 18:32:05;;;;;;;;;0.00;0.00;;;;;;;;5043397;28;8838;-78
2021/09/29 18:34:37;;;;;;;;;0.00;0.00;;;;;;;;5040599;28;9092;-80
2021/09/29 18:37:06;;;;;;;;;0.33;0.33;;;;;;;;5044342;28;9060;-76
2021/09/29 18:39:36;;;;;;;;;0.33;0.00;;;;;;;;5044204;28;9062;-75
2021/09/29 18:42:05;;;;;;;;;0.00;0.00;;;;;;;;5046107;28;9196;-78
2021/09/29 18:44:38;;;;;;;;;0.00;0.00;;;;;;;;5043370;28;9043;-79
2021/09/29 18:47:07;;;;;;;;;0.00;0.00;;;;;;;;5045139;28;9062;-77